Time;durP1;ratioP1;P1;durP2;ratioP2;P2;SDS_P1;SDS_P2;PMS_P1;PMS_P2;Temp;Humidity;BMP_temperature;BMP_pressure;BME280_temperature;BME280_humidity;BME280_pressure;Samples;Min_cycle;Max_cycle;Signal;HPM_P1;HPM_P2
2022/03/05 00:01:09;;;;;;;;;;;;;;;-2.10;75.82;101122.94;5048056;28;1943;-88
2022/03/05 00:03:37;;;;;;;;;;;;;;;-2.19;75.43;101121.34;5016420;28;1443;-88
2022/03/05 00:06:02;;;;;;;;;;;;;;;-2.26;75.84;101120.41;5047834;28;1494;-87
2022/03/05 00:08:28;;;;;;;;;;;;;;;-2.17;75.95;101129.19;5025316;28;1484;-87
2022/03/05 00:10:53;;;;;;;;;;;;;;;-2.05;76.01;101125.91;5036654;28;1422;-88
2022/03/05 00:13:18;;;;;;;;;;;;;;;-2.10;76.16;101130.97;5033918;28;1742;-88
2022/03/05 00:15:45;;;;;;;;;;;;;;;-2.16;75.76;101126.34;5028016;28;1649;-87
2022/03/05 00:18:11;;;;;;;;;;;;;;;-2.38;75.89;101122.69;5031845;28;1612;-87
2022/03/05 00:20:36;;;;;;;;;;;;;;;-2.30;75.99;101119.13;5049052;28;1902;-87
2022/03/05 00:23:01;;;;;;;;;;;;;;;-2.14;76.10;101121.63;5048742;28;1287;-88
2022/03/05 00:25:26;;;;;;;;;;;;;;;-2.16;75.84;101120.97;5047660;28;1307;-88
2022/03/05 00:27:52;;;;;;;;;;;;;;;-2.19;76.25;101115.97;5048701;28;1411;-87
2022/03/05 00:30:17;;;;;;;;;;;;;;;-2.16;76.28;101107.56;5032073;28;1540;-87
2022/03/05 00:32:43;;;;;;;;;;;;;;;-2.13;76.06;101117.94;5021366;28;1455;-88
2022/03/05 00:35:08;;;;;;;;;;;;;;;-2.33;76.23;101120.31;5046328;28;1442;-88
2022/03/05 00:37:34;;;;;;;;;;;;;;;-2.32;76.43;101127.34;5032278;28;1590;-87
2022/03/05 00:39:59;;;;;;;;;;;;;;;-2.35;76.35;101129.53;5042557;28;1969;-87
2022/03/05 00:42:24;;;;;;;;;;;;;;;-2.49;76.27;101131.16;5048491;28;1656;-87
2022/03/05 00:44:49;;;;;;;;;;;;;;;-2.44;76.55;101136.81;5049157;28;1735;-87
2022/03/05 00:47:15;;;;;;;;;;;;;;;-2.28;76.67;101131.31;5049900;28;1711;-86
2022/03/05 00:49:40;;;;;;;;;;;;;;;-2.50;76.40;101147.44;5052782;28;1742;-87
2022/03/05 00:52:05;;;;;;;;;;;;;;;-2.39;76.82;101141.66;5054029;28;1358;-87
2022/03/05 00:54:30;;;;;;;;;;;;;;;-2.60;76.41;101139.63;5053874;28;1676;-87
2022/03/05 00:56:55;;;;;;;;;;;;;;;-2.47;76.68;101144.41;5053897;28;929;-88
2022/03/05 00:59:21;;;;;;;;;;;;;;;-2.42;76.51;101147.34;5053794;28;1522;-87
2022/03/05 01:01:46;;;;;;;;;;;;;;;-2.52;76.64;101142.25;5053836;28;1897;-87
2022/03/05 01:04:11;;;;;;;;;;;;;;;-2.51;76.72;101140.41;5037424;28;833;-87
2022/03/05 01:06:36;;;;;;;;;;;;;;;-2.50;77.07;101136.69;5038318;28;1616;-87
2022/03/05 01:09:02;;;;;;;;;;;;;;;-2.62;76.76;101143.47;5039463;28;943;-87
2022/03/05 01:11:28;;;;;;;;;;;;;;;-2.49;77.07;101141.88;5054401;28;1630;-87
2022/03/05 01:13:53;;;;;;;;;;;;;;;-2.67;76.86;101142.19;5039266;28;1397;-87
2022/03/05 01:16:18;;;;;;;;;;;;;;;-2.70;77.10;101142.53;5035295;28;1555;-87
2022/03/05 01:18:43;;;;;;;;;;;;;;;-2.56;76.99;101140.13;5038223;28;1805;-87
2022/03/05 01:21:08;;;;;;;;;;;;;;;-2.73;76.84;101136.72;5053766;28;1941;-87
2022/03/05 01:23:34;;;;;;;;;;;;;;;-2.74;77.22;101132.38;5033995;28;1487;-87
2022/03/05 01:25:59;;;;;;;;;;;;;;;-2.64;77.28;101130.28;5054501;28;1194;-87
2022/03/05 01:28:24;;;;;;;;;;;;;;;-2.72;77.10;101133.84;5055225;28;1467;-87
2022/03/05 01:30:49;;;;;;;;;;;;;;;-2.62;77.22;101127.41;5046976;28;1458;-87
2022/03/05 01:33:17;;;;;;;;;;;;;;;-2.58;77.13;101123.38;5040585;28;1205;-87
2022/03/05 01:35:42;;;;;;;;;;;;;;;-2.70;76.99;101125.63;5054424;28;1324;-87
2022/03/05 01:38:08;;;;;;;;;;;;;;;-2.69;77.17;101121.94;5053946;28;1302;-87
2022/03/05 01:40:33;;;;;;;;;;;;;;;-2.69;77.38;101119.25;5049339;28;1909;-88
2022/03/05 01:42:58;;;;;;;;;;;;;;;-2.68;77.49;101119.09;5052611;28;1762;-88
2022/03/05 01:45:23;;;;;;;;;;;;;;;-2.76;77.44;101113.78;5035543;28;1757;-86
2022/03/05 01:47:52;;;;;;;;;;;;;;;-2.80;77.42;101120.50;5052072;28;1290;-87
2022/03/05 01:50:17;;;;;;;;;;;;;;;-2.78;77.37;101104.25;5052200;28;1419;-87
2022/03/05 01:52:42;;;;;;;;;;;;;;;-2.72;77.45;101106.22;5052376;28;1489;-87
2022/03/05 01:55:08;;;;;;;;;;;;;;;-2.90;77.35;101101.19;5034937;28;1358;-87
2022/03/05 01:57:33;;;;;;;;;;;;;;;-2.94;77.76;101102.53;5036900;28;1135;-87
2022/03/05 01:59:59;;;;;;;;;;;;;;;-2.92;77.76;101103.19;5048738;28;1905;-87
2022/03/05 02:02:24;;;;;;;;;;;;;;;-2.90;77.77;101103.03;5051506;28;1506;-87
2022/03/05 02:04:50;;;;;;;;;;;;;;;-3.03;77.73;101095.56;5050839;28;1235;-87
2022/03/05 02:07:15;;;;;;;;;;;;;;;-3.01;78.10;101106.09;5050958;28;1353;-87
2022/03/05 02:09:40;;;;;;;;;;;;;;;-2.96;77.96;101096.50;5048764;28;1258;-86
2022/03/05 02:12:06;;;;;;;;;;;;;;;-2.80;78.03;101093.72;5052526;28;1362;-86
2022/03/05 02:14:31;;;;;;;;;;;;;;;-3.00;77.77;101091.69;5050734;28;1407;-86
2022/03/05 02:16:56;;;;;;;;;;;;;;;-3.02;77.89;101086.53;5051468;28;1387;-87
2022/03/05 02:19:21;;;;;;;;;;;;;;;-3.02;77.81;101097.22;5051116;28;1506;-87
2022/03/05 02:21:47;;;;;;;;;;;;;;;-2.99;77.83;101098.72;5035615;28;1891;-87
2022/03/05 02:24:13;;;;;;;;;;;;;;;-3.14;77.85;101088.75;5051090;28;1515;-87
2022/03/05 02:26:38;;;;;;;;;;;;;;;-3.12;78.35;101096.63;5052125;28;1397;-86
2022/03/05 02:29:15;;;;;;;;;;;;;;;-2.98;78.42;101098.56;5045553;28;1677;-87
2022/03/05 02:31:40;;;;;;;;;;;;;;;-3.08;78.46;101089.91;5031727;28;1297;-87
2022/03/05 02:34:05;;;;;;;;;;;;;;;-3.03;78.60;101095.56;5040272;28;1376;-87
2022/03/05 02:36:30;;;;;;;;;;;;;;;-3.03;78.59;101090.22;5050923;28;1478;-87
2022/03/05 02:38:55;;;;;;;;;;;;;;;-3.05;78.45;101089.53;5037968;28;1265;-87
2022/03/05 02:41:23;;;;;;;;;;;;;;;-3.10;78.46;101092.75;5048245;28;1967;-87
2022/03/05 02:43:50;;;;;;;;;;;;;;;-3.08;78.80;101089.91;5033018;28;1675;-88
2022/03/05 02:46:15;;;;;;;;;;;;;;;-3.01;78.56;101092.72;5036722;28;1229;-87
2022/03/05 02:48:44;;;;;;;;;;;;;;;-3.08;78.37;101082.72;5049966;28;1486;-87
2022/03/05 02:51:12;;;;;;;;;;;;;;;-3.14;78.74;101087.94;5027045;28;1568;-87
2022/03/05 02:53:37;;;;;;;;;;;;;;;-3.18;78.67;101081.28;5031160;28;1451;-86
2022/03/05 02:56:03;;;;;;;;;;;;;;;-3.33;78.71;101080.38;5033368;28;1398;-87
2022/03/05 02:58:28;;;;;;;;;;;;;;;-3.47;78.71;101080.09;5034857;28;1717;-87
2022/03/05 03:00:53;;;;;;;;;;;;;;;-3.40;78.87;101087.44;5038097;28;1894;-87
2022/03/05 03:03:18;;;;;;;;;;;;;;;-3.54;78.92;101087.16;5026356;28;1556;-87
2022/03/05 03:05:43;;;;;;;;;;;;;;;-3.36;79.68;101088.72;5031498;28;1653;-87
2022/03/05 03:08:09;;;;;;;;;;;;;;;-3.26;79.19;101089.34;5057615;28;1348;-86
2022/03/05 03:10:52;;;;;;;;;;;;;;;-3.36;79.31;101081.53;5034995;28;1622;-86
2022/03/05 03:13:20;;;;;;;;;;;;;;;-3.31;79.12;101078.31;5050913;28;1457;-87
2022/03/05 03:15:48;;;;;;;;;;;;;;;-3.35;79.40;101083.22;5047231;28;1338;-87
2022/03/05 03:18:15;;;;;;;;;;;;;;;-3.35;79.14;101083.22;5033427;28;1252;-86
2022/03/05 03:20:41;;;;;;;;;;;;;;;-3.23;79.60;101075.63;5050155;28;1949;-87
2022/03/05 03:23:06;;;;;;;;;;;;;;;-3.14;79.06;101077.22;5049574;28;1332;-88
2022/03/05 03:25:34;;;;;;;;;;;;;;;-3.21;79.33;101078.94;5033362;28;1555;-87
2022/03/05 03:28:00;;;;;;;;;;;;;;;-3.17;79.40;101078.44;5046573;28;1478;-87
2022/03/05 03:30:25;;;;;;;;;;;;;;;-3.32;79.00;101085.56;5021501;28;1469;-87
2022/03/05 03:32:50;;;;;;;;;;;;;;;-3.46;79.32;101079.09;5047530;28;1482;-86
2022/03/05 03:35:16;;;;;;;;;;;;;;;-3.32;79.61;101076.69;5025088;28;1964;-86
2022/03/05 03:37:41;;;;;;;;;;;;;;;-3.37;79.66;101076.34;5048012;28;1523;-87
2022/03/05 03:40:07;;;;;;;;;;;;;;;-3.55;79.76;101074.78;5029549;28;1906;-87
2022/03/05 03:42:33;;;;;;;;;;;;;;;-3.47;79.95;101081.94;5045296;28;1478;-87
2022/03/05 03:44:58;;;;;;;;;;;;;;;-3.40;79.93;101079.41;5046414;28;1384;-87
2022/03/05 03:47:24;;;;;;;;;;;;;;;-3.36;80.07;101083.38;5029025;28;1423;-86
2022/03/05 03:49:49;;;;;;;;;;;;;;;-3.39;79.79;101086.41;5050504;28;1322;-87
2022/03/05 03:52:15;;;;;;;;;;;;;;;-3.39;79.92;101091.75;5044591;28;1553;-87
2022/03/05 03:54:40;;;;;;;;;;;;;;;-3.29;80.02;101084.34;5029934;28;1566;-86
2022/03/05 03:57:09;;;;;;;;;;;;;;;-3.38;80.03;101096.09;5044332;28;1368;-87
2022/03/05 03:59:34;;;;;;;;;;;;;;;-3.47;79.91;101092.63;5033869;28;1898;-87
2022/03/05 04:02:01;;;;;;;;;;;;;;;-3.59;80.04;101108.25;5043558;28;1497;-86
2022/03/05 04:04:26;;;;;;;;;;;;;;;-3.57;80.39;101108.06;5047050;28;1517;-87
2022/03/05 04:09:35;;;;;;;;;;;;;;;-3.44;80.62;101097.66;5026065;28;1188;-86
2022/03/05 04:12:01;;;;;;;;;;;;;;;-3.35;80.18;101099.28;5050573;28;1256;-87
2022/03/05 04:14:26;;;;;;;;;;;;;;;-3.36;79.93;101102.13;5044060;28;1290;-87
2022/03/05 04:16:51;;;;;;;;;;;;;;;-3.45;80.39;101107.50;5028077;28;1467;-86
2022/03/05 04:19:16;;;;;;;;;;;;;;;-3.36;80.08;101104.78;5049362;28;1502;-87
2022/03/05 04:21:42;;;;;;;;;;;;;;;-3.34;80.25;101106.28;5034088;28;1960;-87
2022/03/05 04:24:08;;;;;;;;;;;;;;;-3.36;80.37;101104.78;5037819;28;1335;-87
2022/03/05 04:26:33;;;;;;;;;;;;;;;-3.22;80.76;101106.72;5030433;28;1328;-87
2022/03/05 04:28:58;;;;;;;;;;;;;;;-3.26;80.16;101110.78;5039439;28;1418;-87
2022/03/05 04:31:26;;;;;;;;;;;;;;;-3.40;80.41;101116.88;5049779;28;1383;-86
2022/03/05 04:33:52;;;;;;;;;;;;;;;-3.46;80.65;101113.88;5077223;22;1668;-87
2022/03/05 04:36:17;;;;;;;;;;;;;;;-3.47;80.39;101106.84;5059030;28;1263;-87
2022/03/05 04:38:42;;;;;;;;;;;;;;;-3.44;80.50;101111.03;5060601;28;879;-87
2022/03/05 04:41:07;;;;;;;;;;;;;;;-3.39;80.64;101118.50;5075694;28;1939;-87
2022/03/05 04:43:33;;;;;;;;;;;;;;;-3.45;80.69;101110.19;5075855;28;1247;-87
2022/03/05 04:45:58;;;;;;;;;;;;;;;-3.51;80.29;101116.25;5058317;28;1511;-87
2022/03/05 04:48:23;;;;;;;;;;;;;;;-3.52;80.79;101119.94;5058859;28;904;-87
2022/03/05 04:50:48;;;;;;;;;;;;;;;-3.54;80.50;101121.09;5059398;28;1219;-87
2022/03/05 04:53:14;;;;;;;;;;;;;;;-3.53;80.69;101123.59;5071140;28;1335;-87
2022/03/05 04:55:39;;;;;;;;;;;;;;;-3.42;80.97;101118.88;5060542;28;805;-87
2022/03/05 04:58:04;;;;;;;;;;;;;;;-3.44;80.54;101124.41;5057775;28;988;-87
2022/03/05 05:00:30;;;;;;;;;;;;;;;-3.40;80.50;101119.56;5057797;28;1955;-87
2022/03/05 05:02:55;;;;;;;;;;;;;;;-3.46;80.41;101124.56;5057169;28;1358;-86
2022/03/05 05:05:20;;;;;;;;;;;;;;;-3.47;80.58;101125.56;5058368;28;1554;-86
2022/03/05 05:07:45;;;;;;;;;;;;;;;-3.41;80.51;101128.59;5057302;28;1535;-86
2022/03/05 05:10:10;;;;;;;;;;;;;;;-3.32;80.68;101138.25;5056476;28;1318;-87
2022/03/05 05:12:36;;;;;;;;;;;;;;;-3.49;80.39;101132.94;5057337;28;1292;-86
2022/03/05 05:15:01;;;;;;;;;;;;;;;-3.52;80.38;101141.34;5057469;28;1180;-86
2022/03/05 05:17:26;;;;;;;;;;;;;;;-3.34;80.74;101141.09;5055291;28;1687;-86
2022/03/05 05:19:51;;;;;;;;;;;;;;;-3.10;80.31;101140.97;5058294;28;1949;-86
2022/03/05 05:22:16;;;;;;;;;;;;;;;-3.13;80.26;101138.63;5056690;28;1271;-87
2022/03/05 05:24:41;;;;;;;;;;;;;;;-3.02;80.09;101149.94;5056610;28;901;-87
2022/03/05 05:27:07;;;;;;;;;;;;;;;-3.11;80.18;101141.13;5056540;28;1460;-86
2022/03/05 05:29:32;;;;;;;;;;;;;;;-3.13;80.08;101143.97;5057963;28;806;-87
2022/03/05 05:31:57;;;;;;;;;;;;;;;-3.08;80.38;101141.63;5057044;28;1205;-86
2022/03/05 05:34:23;;;;;;;;;;;;;;;-3.11;80.07;101141.13;5055027;28;1392;-87
2022/03/05 05:36:48;;;;;;;;;;;;;;;-3.04;80.55;101139.41;5055530;28;1187;-87
2022/03/05 05:39:15;;;;;;;;;;;;;;;-3.09;80.47;101133.75;5055595;28;1385;-87
2022/03/05 05:41:40;;;;;;;;;;;;;;;-2.96;80.40;101131.31;5055610;28;1897;-87
2022/03/05 05:44:06;;;;;;;;;;;;;;;-2.87;80.26;101132.94;5056223;28;1740;-87
2022/03/05 05:46:32;;;;;;;;;;;;;;;-2.93;80.52;101132.81;5055971;28;1259;-87
2022/03/05 05:48:57;;;;;;;;;;;;;;;-2.94;80.55;101123.13;5055684;28;1297;-87
2022/03/05 05:51:23;;;;;;;;;;;;;;;-2.91;80.46;101130.81;5055531;28;1907;-87
2022/03/05 05:53:48;;;;;;;;;;;;;;;-2.92;80.67;101127.31;5055245;28;1576;-87
2022/03/05 05:56:13;;;;;;;;;;;;;;;-2.91;80.65;101123.63;5056905;28;1019;-86
2022/03/05 05:58:39;;;;;;;;;;;;;;;-2.88;80.49;101125.06;5056161;28;1395;-86
2022/03/05 06:01:04;;;;;;;;;;;;;;;-2.85;80.58;101130.09;5055269;28;1963;-86
2022/03/05 06:03:29;;;;;;;;;;;;;;;-2.92;80.79;101135.34;5055325;28;1318;-87
2022/03/05 06:05:56;;;;;;;;;;;;;;;-3.00;80.76;101134.56;5055547;28;995;-86
2022/03/05 06:08:21;;;;;;;;;;;;;;;-3.03;80.75;101138.41;5055373;28;1210;-86
2022/03/05 06:10:46;;;;;;;;;;;;;;;-2.97;80.84;101143.03;5055079;28;750;-87
2022/03/05 06:13:11;;;;;;;;;;;;;;;-2.92;80.70;101146.03;5055300;28;1284;-87
2022/03/05 06:15:37;;;;;;;;;;;;;;;-2.96;80.86;101141.22;5056640;28;1423;-86
2022/03/05 06:18:02;;;;;;;;;;;;;;;-3.08;80.83;101143.47;5055350;28;930;-87
2022/03/05 06:20:27;;;;;;;;;;;;;;;-3.09;80.98;101139.13;5054814;28;1957;-87
2022/03/05 06:22:52;;;;;;;;;;;;;;;-3.17;81.18;101139.16;5054912;28;1192;-87
2022/03/05 06:25:17;;;;;;;;;;;;;;;-3.19;81.02;101141.19;5055043;28;1035;-87
2022/03/05 06:27:43;;;;;;;;;;;;;;;-3.16;81.40;101138.16;5055305;28;1324;-86
2022/03/05 06:30:10;;;;;;;;;;;;;;;-3.15;81.59;101142.50;5055286;28;1291;-87
2022/03/05 06:32:35;;;;;;;;;;;;;;;-3.02;81.51;101145.44;5055107;28;1297;-87
2022/03/05 06:35:00;;;;;;;;;;;;;;;-2.95;81.23;101149.06;5055331;28;712;-87
2022/03/05 06:37:26;;;;;;;;;;;;;;;-3.05;81.30;101154.66;5055362;28;878;-87
2022/03/05 06:39:51;;;;;;;;;;;;;;;-3.10;81.24;101154.34;5055678;28;1961;-87
2022/03/05 06:42:16;;;;;;;;;;;;;;;-3.08;81.38;101152.34;5057167;28;1222;-87
2022/03/05 06:44:41;;;;;;;;;;;;;;;-3.12;81.52;101147.50;5055538;28;1190;-87
2022/03/05 06:47:07;;;;;;;;;;;;;;;-3.09;81.84;101155.19;5054350;28;1307;-87
2022/03/05 06:49:32;;;;;;;;;;;;;;;-3.08;81.56;101155.03;5055498;28;1247;-87
2022/03/05 06:51:58;;;;;;;;;;;;;;;-3.12;81.76;101155.53;5055536;28;1268;-87
2022/03/05 06:54:23;;;;;;;;;;;;;;;-3.06;81.86;101160.16;5055108;28;1198;-87
2022/03/05 06:56:49;;;;;;;;;;;;;;;-3.01;81.94;101159.66;5055086;28;1292;-87
2022/03/05 06:59:14;;;;;;;;;;;;;;;-3.01;81.67;101165.84;5055526;28;1160;-87
2022/03/05 07:01:39;;;;;;;;;;;;;;;-2.97;81.65;101164.47;5055638;28;1893;-87
2022/03/05 07:04:04;;;;;;;;;;;;;;;-2.90;81.86;101170.81;5055062;28;1348;-87
2022/03/05 07:06:29;;;;;;;;;;;;;;;-2.78;81.73;101168.56;5054556;28;972;-86
2022/03/05 07:08:54;;;;;;;;;;;;;;;-2.71;81.84;101170.34;5054387;28;1195;-87
2022/03/05 07:11:20;;;;;;;;;;;;;;;-2.74;81.78;101180.59;5054366;28;1282;-86
2022/03/05 07:13:45;;;;;;;;;;;;;;;-2.62;81.67;101172.97;5054560;28;1405;-87
2022/03/05 07:16:10;;;;;;;;;;;;;;;-2.61;81.69;101180.00;5054600;28;1067;-87
2022/03/05 07:18:35;;;;;;;;;;;;;;;-2.63;82.04;101176.66;5054141;28;1312;-87
2022/03/05 07:21:00;;;;;;;;;;;;;;;-2.41;82.07;101178.50;5053768;28;2015;-87
2022/03/05 07:23:26;;;;;;;;;;;;;;;-2.40;82.09;101183.69;5053805;28;1369;-87
2022/03/05 07:25:51;;;;;;;;;;;;;;;-2.26;82.19;101184.75;5055569;28;1214;-86
2022/03/05 07:28:16;;;;;;;;;;;;;;;-2.13;82.02;101185.00;5056432;28;1223;-86
2022/03/05 07:30:42;;;;;;;;;;;;;;;-2.07;82.01;101189.63;5055408;28;1331;-87
2022/03/05 07:33:08;;;;;;;;;;;;;;;-2.13;82.36;101193.03;5055123;28;1383;-86
2022/03/05 07:35:33;;;;;;;;;;;;;;;-1.99;82.55;101183.34;5056133;28;825;-86
2022/03/05 07:37:58;;;;;;;;;;;;;;;-2.01;82.32;101186.22;5054142;28;1021;-86
2022/03/05 07:40:23;;;;;;;;;;;;;;;-1.95;82.49;101188.16;5053587;28;1897;-86
2022/03/05 07:42:48;;;;;;;;;;;;;;;-1.81;82.53;101188.38;5053249;28;1350;-87
2022/03/05 07:45:14;;;;;;;;;;;;;;;-1.71;82.63;101194.31;5053600;28;1369;-86
2022/03/05 07:47:39;;;;;;;;;;;;;;;-1.67;82.83;101192.91;5053860;28;1263;-86
2022/03/05 07:50:04;;;;;;;;;;;;;;;-1.63;82.97;101192.38;5054116;28;1242;-86
2022/03/05 07:52:36;;;;;;;;;;;;;;;-1.57;83.04;101199.69;5052972;28;1250;-87
2022/03/05 07:55:01;;;;;;;;;;;;;;;-1.51;83.22;101195.41;5052793;28;1639;-87
2022/03/05 07:57:26;;;;;;;;;;;;;;;-1.46;82.96;101208.31;5052372;28;1213;-87
2022/03/05 07:59:51;;;;;;;;;;;;;;;-1.39;82.94;101201.19;5054018;28;1961;-88
2022/03/05 08:02:16;;;;;;;;;;;;;;;-1.36;82.74;101204.31;5052320;28;1235;-88
2022/03/05 08:04:43;;;;;;;;;;;;;;;-1.24;83.04;101207.38;5052638;28;1341;-87
2022/03/05 08:07:08;;;;;;;;;;;;;;;-1.17;82.79;101208.28;5052617;28;1335;-88
2022/03/05 08:09:35;;;;;;;;;;;;;;;-1.08;83.01;101203.66;5054803;28;1243;-86
2022/03/05 08:12:01;;;;;;;;;;;;;;;-1.01;82.28;101212.63;5056436;28;1156;-86
2022/03/05 08:14:26;;;;;;;;;;;;;;;-0.97;82.26;101213.91;5052972;28;1184;-87
2022/03/05 08:16:51;;;;;;;;;;;;;;;-1.01;82.29;101213.44;5052900;28;1075;-87
2022/03/05 08:19:16;;;;;;;;;;;;;;;-1.02;82.45;101217.16;5053809;28;1302;-87
2022/03/05 08:21:43;;;;;;;;;;;;;;;-0.97;82.19;101211.22;5055827;28;1894;-87
2022/03/05 08:24:08;;;;;;;;;;;;;;;-0.96;81.97;101207.53;5053971;28;1326;-86
2022/03/05 08:26:33;;;;;;;;;;;;;;;-0.93;81.90;101204.44;5054167;28;1361;-87
2022/03/05 08:28:58;;;;;;;;;;;;;;;-0.81;81.94;101213.69;5059466;28;1491;-87
2022/03/05 08:31:24;;;;;;;;;;;;;;;-0.84;81.66;101203.31;5052515;28;1379;-87
2022/03/05 08:33:50;;;;;;;;;;;;;;;-0.86;81.56;101206.22;5052352;28;1673;-86
2022/03/05 08:36:15;;;;;;;;;;;;;;;-0.84;81.80;101206.84;5052318;28;1194;-88
2022/03/05 08:38:40;;;;;;;;;;;;;;;-0.81;81.73;101202.94;5053514;28;1015;-87
2022/03/05 08:41:05;;;;;;;;;;;;;;;-0.80;81.47;101199.25;5052289;28;1906;-88
2022/03/05 08:43:31;;;;;;;;;;;;;;;-0.73;81.70;101199.31;5052008;28;1330;-88
2022/03/05 08:45:56;;;;;;;;;;;;;;;-0.69;81.24;101208.69;5051733;28;1984;-87
2022/03/05 08:48:21;;;;;;;;;;;;;;;-0.64;81.22;101206.25;5052042;28;1250;-88
2022/03/05 08:50:47;;;;;;;;;;;;;;;-0.63;81.50;101205.22;5051912;28;1192;-88
2022/03/05 08:53:12;;;;;;;;;;;;;;;-0.58;81.07;101202.78;5052180;28;1262;-87
2022/03/05 08:55:37;;;;;;;;;;;;;;;-0.55;81.20;101200.56;5052073;28;1215;-88
2022/03/05 08:58:03;;;;;;;;;;;;;;;-0.48;81.28;101203.31;5052021;28;1159;-88
2022/03/05 09:00:28;;;;;;;;;;;;;;;-0.39;81.08;101197.63;5051807;28;1889;-88
2022/03/05 09:02:54;;;;;;;;;;;;;;;-0.32;81.06;101199.53;5052199;28;1248;-88
2022/03/05 09:05:19;;;;;;;;;;;;;;;-0.24;80.91;101194.03;5052449;28;1252;-87
2022/03/05 09:07:44;;;;;;;;;;;;;;;-0.24;80.41;101194.84;5051701;28;1297;-88
2022/03/05 09:10:10;;;;;;;;;;;;;;;-0.20;80.30;101192.63;5053396;28;1312;-87
2022/03/05 09:12:35;;;;;;;;;;;;;;;-0.13;80.37;101185.44;5055473;28;1231;-88
2022/03/05 09:15:01;;;;;;;;;;;;;;;-0.13;80.14;101185.44;5055338;28;1213;-88
2022/03/05 09:17:26;;;;;;;;;;;;;;;-0.07;80.08;101185.50;5055234;28;1363;-88
2022/03/05 09:19:53;;;;;;;;;;;;;;;-0.01;79.78;101183.91;5055128;28;1901;-87
2022/03/05 09:22:18;;;;;;;;;;;;;;;0.04;79.62;101184.13;5055271;28;1254;-87
2022/03/05 09:24:43;;;;;;;;;;;;;;;0.00;79.52;101175.59;5055240;28;1231;-87
2022/03/05 09:27:09;;;;;;;;;;;;;;;0.06;79.63;101179.41;5055122;28;1013;-87
2022/03/05 09:29:34;;;;;;;;;;;;;;;0.11;79.14;101179.63;5055125;28;1298;-87
2022/03/05 09:32:00;;;;;;;;;;;;;;;0.18;79.09;101175.13;5054899;28;1267;-87
2022/03/05 09:34:25;;;;;;;;;;;;;;;0.21;78.91;101171.22;5055024;28;1547;-88
2022/03/05 09:36:50;;;;;;;;;;;;;;;0.23;78.91;101180.78;5054995;28;938;-87
2022/03/05 09:39:15;;;;;;;;;;;;;;;0.27;78.83;101182.03;5056391;28;1008;-87
2022/03/05 09:41:41;;;;;;;;;;;;;;;0.36;78.49;101174.63;5055433;28;1967;-87
2022/03/05 09:44:06;;;;;;;;;;;;;;;0.35;78.24;101172.97;5054918;28;1414;-88
2022/03/05 09:46:32;;;;;;;;;;;;;;;0.34;78.17;101172.13;5054851;28;1463;-87
2022/03/05 09:48:58;;;;;;;;;;;;;;;0.42;78.00;101176.56;5055356;28;1219;-86
2022/03/05 09:51:23;;;;;;;;;;;;;;;0.45;77.75;101169.91;5057032;28;1450;-86
2022/03/05 09:53:51;;;;;;;;;;;;;;;0.53;77.54;101169.75;5054608;28;1238;-87
2022/03/05 09:56:16;;;;;;;;;;;;;;;0.55;77.43;101175.78;5054866;28;1490;-88
2022/03/05 09:58:41;;;;;;;;;;;;;;;0.55;77.42;101170.41;5054770;28;1009;-87
2022/03/05 10:01:07;;;;;;;;;;;;;;;0.57;77.49;101173.72;5057322;28;1890;-86
2022/03/05 10:03:41;;;;;;;;;;;;;;;0.58;77.10;101167.31;5054586;28;1408;-87
2022/03/05 10:06:13;;;;;;;;;;;;;;;0.69;76.95;101172.94;5055088;28;1324;-88
2022/03/05 10:08:39;;;;;;;;;;;;;;;0.84;76.55;101162.06;5054681;28;1472;-87
2022/03/05 10:11:06;;;;;;;;;;;;;;;0.88;76.35;101160.63;5055955;28;836;-86
2022/03/05 10:13:32;;;;;;;;;;;;;;;0.84;75.94;101155.84;5055273;28;1208;-88
2022/03/05 10:16:01;;;;;;;;;;;;;;;0.79;75.81;101161.81;5054582;28;1452;-87
2022/03/05 10:18:30;;;;;;;;;;;;;;;0.93;75.92;101160.03;5054604;28;1203;-88
2022/03/05 10:20:56;;;;;;;;;;;;;;;1.09;75.00;101160.50;5054213;28;1885;-88
2022/03/05 10:23:21;;;;;;;;;;;;;;;0.98;74.63;101163.78;5054386;28;1317;-88
2022/03/05 10:25:51;;;;;;;;;;;;;;;0.96;74.93;101155.03;5054103;28;1220;-88
2022/03/05 10:28:26;;;;;;;;;;;;;;;0.96;75.04;101159.59;5054274;28;1235;-88
2022/03/05 10:30:52;;;;;;;;;;;;;;;1.00;74.63;101159.00;5054060;28;1483;-87
2022/03/05 10:33:23;;;;;;;;;;;;;;;1.09;74.34;101160.50;5098342;22;1850;-90
2022/03/05 10:35:48;;;;;;;;;;;;;;;1.11;74.17;101160.28;5068981;28;1394;-91
2022/03/05 10:38:13;;;;;;;;;;;;;;;1.19;73.59;101160.13;5058097;28;1347;-89
2022/03/05 10:40:38;;;;;;;;;;;;;;;1.30;73.37;101158.69;5068653;28;1966;-89
2022/03/05 10:43:05;;;;;;;;;;;;;;;1.30;72.87;101159.50;5072055;28;1454;-87
2022/03/05 10:45:47;;;;;;;;;;;;;;;1.27;72.87;101165.34;5063598;28;1180;-88
2022/03/05 10:48:21;;;;;;;;;;;;;;;1.25;72.51;101163.88;5058520;28;1243;-86
2022/03/05 10:50:46;;;;;;;;;;;;;;;1.26;72.49;101157.44;5083631;28;1478;-87
2022/03/05 10:53:11;;;;;;;;;;;;;;;1.29;72.35;101154.31;5080851;28;1291;-91
2022/03/05 10:55:37;;;;;;;;;;;;;;;1.35;72.12;101154.34;5080354;28;1530;-90
2022/03/05 10:58:02;;;;;;;;;;;;;;;1.37;71.56;101146.03;5079399;28;1564;-90
2022/03/05 11:00:28;;;;;;;;;;;;;;;1.42;71.48;101154.34;5094360;28;1961;-90
2022/03/05 11:02:54;;;;;;;;;;;;;;;1.44;71.44;101153.13;5076270;28;1848;-90
2022/03/05 11:05:20;;;;;;;;;;;;;;;1.53;71.17;101153.78;5076720;28;1455;-91
2022/03/05 11:07:47;;;;;;;;;;;;;;;1.71;70.65;101151.28;5076778;28;1470;-90
2022/03/05 11:10:13;;;;;;;;;;;;;;;1.74;69.97;101153.56;5093605;28;1517;-91
2022/03/05 11:12:39;;;;;;;;;;;;;;;1.68;69.90;101149.00;5076634;28;1721;-88
2022/03/05 11:15:07;;;;;;;;;;;;;;;1.71;69.15;101148.56;5076966;28;1229;-88
2022/03/05 11:17:35;;;;;;;;;;;;;;;1.85;68.82;101155.66;5059960;28;1328;-89
2022/03/05 11:20:02;;;;;;;;;;;;;;;1.88;68.18;101146.28;5076977;28;1947;-88
2022/03/05 11:22:28;;;;;;;;;;;;;;;1.86;67.80;101143.81;5077306;28;1380;-88
2022/03/05 11:24:53;;;;;;;;;;;;;;;1.93;67.71;101145.69;5078251;28;1255;-89
2022/03/05 11:27:18;;;;;;;;;;;;;;;1.99;67.54;101151.06;5077924;28;1522;-89
2022/03/05 11:29:54;;;;;;;;;;;;;;;1.93;67.34;101141.13;5064673;28;1228;-90
2022/03/05 11:37:35;;;;;;;;;;;;;;;2.18;66.40;101133.19;5052280;28;1402;-91
2022/03/05 11:40:04;;;;;;;;;;;;;;;2.27;66.38;101132.78;5035547;28;1910;-89
2022/03/05 11:42:58;;;;;;;;;;;;;;;2.28;66.09;101139.00;5031983;28;1367;-90
2022/03/05 11:48:24;;;;;;;;;;;;;;;2.28;66.18;101131.72;5033710;28;1514;-89
2022/03/05 11:54:14;;;;;;;;;;;;;;;2.58;65.06;101123.13;4972576;28;1553;-89
2022/03/05 11:57:14;;;;;;;;;;;;;;;;;;;;;
2022/03/05 11:59:50;;;;;;;;;;;;;;;3.10;63.94;101110.41;5023691;28;1488;-89
2022/03/05 12:02:57;;;;;;;;;;;;;;;;;;;;;
2022/03/05 12:05:59;;;;;;;;;;;;;;;3.15;63.54;101107.91;5032549;28;1340;-89
2022/03/05 12:09:10;;;;;;;;;;;;;;;3.02;63.83;101103.41;5033329;28;1289;-89
2022/03/05 12:11:53;;;;;;;;;;;;;;;2.97;63.70;101100.53;5019085;28;1201;-89
2022/03/05 12:14:21;;;;;;;;;;;;;;;3.02;63.25;101104.22;5014591;28;1512;-91
2022/03/05 12:16:50;;;;;;;;;;;;;;;3.20;63.52;101094.56;5015824;28;1173;-91
2022/03/05 12:19:17;;;;;;;;;;;;;;;3.22;63.15;101090.59;5016190;28;1391;-90
2022/03/05 12:21:43;;;;;;;;;;;;;;;3.24;62.90;101090.34;5015743;28;1898;-89
2022/03/05 12:24:11;;;;;;;;;;;;;;;3.39;62.14;101093.59;5031969;28;1265;-90
2022/03/05 12:26:40;;;;;;;;;;;;;;;3.64;61.98;101090.91;5016132;28;1645;-90
2022/03/05 12:29:06;;;;;;;;;;;;;;;3.72;61.80;101082.53;5015701;28;1433;-90
2022/03/05 12:31:31;;;;;;;;;;;;;;;3.65;61.53;101089.88;5016032;28;1367;-90
2022/03/05 12:33:57;;;;;;;;;;;;;;;3.59;61.26;101088.03;4996249;28;1342;-90
2022/03/05 12:36:22;;;;;;;;;;;;;;;3.49;61.52;101085.00;4995958;28;1297;-89
2022/03/05 12:39:03;;;;;;;;;;;;;;;3.63;61.00;101083.84;4996469;28;1367;-90
2022/03/05 12:41:32;;;;;;;;;;;;;;;3.64;60.86;101080.91;4995928;28;1895;-89
2022/03/05 12:44:07;;;;;;;;;;;;;;;;;;;;;
2022/03/05 12:46:32;;;;;;;;;;;;;;;3.61;60.66;101085.94;5017669;28;820;-91
2022/03/05 12:49:03;;;;;;;;;;;;;;;3.58;60.56;101078.25;4999959;28;1311;-91
2022/03/05 12:51:32;;;;;;;;;;;;;;;3.52;60.38;101079.13;5000064;28;1224;-90
2022/03/05 12:54:00;;;;;;;;;;;;;;;3.40;60.75;101079.84;4999682;28;1466;-91
2022/03/05 12:56:26;;;;;;;;;;;;;;;3.34;60.76;101079.88;5000051;28;1304;-91
2022/03/05 12:58:55;;;;;;;;;;;;;;;3.29;60.18;101077.03;5017126;28;1192;-91
2022/03/05 13:01:21;;;;;;;;;;;;;;;3.34;60.69;101077.19;5014525;28;1915;-91
2022/03/05 13:03:50;;;;;;;;;;;;;;;3.30;60.59;101073.28;5019167;28;1261;-90